sensor_id;sensor_type;location;lat;lon;timestamp;temperature;humidity
33811;DHT22;20119;48.334;16.206;2022-12-07T00:00:13;4.80;99.90
33811;DHT22;20119;48.334;16.206;2022-12-07T00:02:41;4.80;99.90
33811;DHT22;20119;48.334;16.206;2022-12-07T00:10:23;4.80;99.90
33811;DHT22;20119;48.334;16.206;2022-12-07T00:12:50;4.80;99.90
33811;DHT22;20119;48.334;16.206;2022-12-07T00:15:20;4.80;99.90
33811;DHT22;20119;48.334;16.206;2022-12-07T00:17:47;4.80;99.90
33811;DHT22;20119;48.334;16.206;2022-12-07T00:20:14;4.80;99.90
33811;DHT22;20119;48.334;16.206;2022-12-07T00:22:41;4.80;99.90
33811;DHT22;20119;48.334;16.206;2022-12-07T00:25:08;4.80;99.90
33811;DHT22;20119;48.334;16.206;2022-12-07T00:27:35;4.80;99.90
33811;DHT22;20119;48.334;16.206;2022-12-07T00:37:49;4.80;99.90
33811;DHT22;20119;48.334;16.206;2022-12-07T00:40:17;4.80;99.90
33811;DHT22;20119;48.334;16.206;2022-12-07T00:42:46;4.90;99.90
33811;DHT22;20119;48.334;16.206;2022-12-07T00:45:13;4.80;99.90
33811;DHT22;20119;48.334;16.206;2022-12-07T00:47:40;4.80;99.90
33811;DHT22;20119;48.334;16.206;2022-12-07T00:50:08;4.70;99.90
33811;DHT22;20119;48.334;16.206;2022-12-07T00:55:14;4.70;99.90
33811;DHT22;20119;48.334;16.206;2022-12-07T01:02:53;4.70;99.90
33811;DHT22;20119;48.334;16.206;2022-12-07T01:05:20;4.70;99.90
33811;DHT22;20119;48.334;16.206;2022-12-07T01:15:34;4.70;99.90
33811;DHT22;20119;48.334;16.206;2022-12-07T01:18:05;4.70;99.90
33811;DHT22;20119;48.334;16.206;2022-12-07T01:20:37;4.70;99.90
33811;DHT22;20119;48.334;16.206;2022-12-07T01:23:07;4.70;99.90
33811;DHT22;20119;48.334;16.206;2022-12-07T01:25:35;4.80;99.90
33811;DHT22;20119;48.334;16.206;2022-12-07T01:28:04;4.70;99.90
33811;DHT22;20119;48.334;16.206;2022-12-07T01:30:31;4.70;99.90
33811;DHT22;20119;48.334;16.206;2022-12-07T01:32:59;4.80;99.90
33811;DHT22;20119;48.334;16.206;2022-12-07T01:35:26;4.70;99.90
33811;DHT22;20119;48.334;16.206;2022-12-07T01:45:49;4.80;99.90
33811;DHT22;20119;48.334;16.206;2022-12-07T01:48:22;4.70;99.90
33811;DHT22;20119;48.334;16.206;2022-12-07T01:50:52;4.80;99.90
33811;DHT22;20119;48.334;16.206;2022-12-07T01:53:21;4.90;99.90
33811;DHT22;20119;48.334;16.206;2022-12-07T01:55:52;4.70;99.90
33811;DHT22;20119;48.334;16.206;2022-12-07T01:58:20;4.70;99.90
33811;DHT22;20119;48.334;16.206;2022-12-07T02:03:29;4.70;99.90
33811;DHT22;20119;48.334;16.206;2022-12-07T02:06:01;4.70;99.90
33811;DHT22;20119;48.334;16.206;2022-12-07T02:08:29;4.70;99.90
33811;DHT22;20119;48.334;16.206;2022-12-07T02:10:56;4.70;99.90
33811;DHT22;20119;48.334;16.206;2022-12-07T02:13:27;4.70;99.90
33811;DHT22;20119;48.334;16.206;2022-12-07T02:16:14;4.70;99.90
33811;DHT22;20119;48.334;16.206;2022-12-07T02:18:53;4.70;99.90
33811;DHT22;20119;48.334;16.206;2022-12-07T02:21:30;4.70;99.90
33811;DHT22;20119;48.334;16.206;2022-12-07T02:24:25;4.70;99.90
33811;DHT22;20119;48.334;16.206;2022-12-07T02:29:38;4.70;99.90
33811;DHT22;20119;48.334;16.206;2022-12-07T05:41:03;3.80;99.90
33811;DHT22;20119;48.334;16.206;2022-12-07T06:30:09;3.90;99.90
33811;DHT22;20119;48.334;16.206;2022-12-07T06:32:36;4.00;99.90
33811;DHT22;20119;48.334;16.206;2022-12-07T06:35:04;4.00;99.90
33811;DHT22;20119;48.334;16.206;2022-12-07T06:37:31;4.00;99.90
33811;DHT22;20119;48.334;16.206;2022-12-07T06:39:58;3.90;99.90
33811;DHT22;20119;48.334;16.206;2022-12-07T06:45:00;3.90;99.90
33811;DHT22;20119;48.334;16.206;2022-12-07T06:47:28;3.80;99.90
33811;DHT22;20119;48.334;16.206;2022-12-07T06:49:55;3.90;99.90
33811;DHT22;20119;48.334;16.206;2022-12-07T06:52:22;3.80;99.90
33811;DHT22;20119;48.334;16.206;2022-12-07T06:54:49;3.90;99.90
33811;DHT22;20119;48.334;16.206;2022-12-07T06:57:16;3.90;99.90
33811;DHT22;20119;48.334;16.206;2022-12-07T06:59:43;3.80;99.90
33811;DHT22;20119;48.334;16.206;2022-12-07T07:02:10;3.80;99.90
33811;DHT22;20119;48.334;16.206;2022-12-07T07:04:38;3.80;99.90
33811;DHT22;20119;48.334;16.206;2022-12-07T07:07:05;3.90;99.90
33811;DHT22;20119;48.334;16.206;2022-12-07T07:09:32;4.00;99.90
33811;DHT22;20119;48.334;16.206;2022-12-07T07:11:59;4.00;99.90
33811;DHT22;20119;48.334;16.206;2022-12-07T07:14:26;3.90;99.90
33811;DHT22;20119;48.334;16.206;2022-12-07T07:16:53;4.00;99.90
33811;DHT22;20119;48.334;16.206;2022-12-07T07:21:56;4.20;99.90
33811;DHT22;20119;48.334;16.206;2022-12-07T07:24:23;4.20;99.90
33811;DHT22;20119;48.334;16.206;2022-12-07T07:26:50;4.20;99.90
33811;DHT22;20119;48.334;16.206;2022-12-07T07:29:17;4.20;99.90
33811;DHT22;20119;48.334;16.206;2022-12-07T07:34:19;4.30;99.90
33811;DHT22;20119;48.334;16.206;2022-12-07T07:39:22;4.30;99.90
33811;DHT22;20119;48.334;16.206;2022-12-07T07:41:49;4.30;99.90
33811;DHT22;20119;48.334;16.206;2022-12-07T07:44:16;4.30;99.90
33811;DHT22;20119;48.334;16.206;2022-12-07T07:46:43;4.40;99.90
33811;DHT22;20119;48.334;16.206;2022-12-07T07:49:10;4.40;99.90
33811;DHT22;20119;48.334;16.206;2022-12-07T07:56:49;4.50;99.90
33811;DHT22;20119;48.334;16.206;2022-12-07T07:59:16;4.50;99.90
33811;DHT22;20119;48.334;16.206;2022-12-07T08:01:43;4.50;99.90
33811;DHT22;20119;48.334;16.206;2022-12-07T08:04:10;4.50;99.90
33811;DHT22;20119;48.334;16.206;2022-12-07T08:06:37;4.50;99.90
33811;DHT22;20119;48.334;16.206;2022-12-07T08:09:03;4.50;99.90
33811;DHT22;20119;48.334;16.206;2022-12-07T08:11:32;4.70;99.90
33811;DHT22;20119;48.334;16.206;2022-12-07T08:16:37;4.80;99.90
33811;DHT22;20119;48.334;16.206;2022-12-07T08:19:06;4.80;99.90
33811;DHT22;20119;48.334;16.206;2022-12-07T08:21:33;4.80;99.90
33811;DHT22;20119;48.334;16.206;2022-12-07T08:24:00;4.90;99.90
33811;DHT22;20119;48.334;16.206;2022-12-07T08:26:27;4.90;99.90
33811;DHT22;20119;48.334;16.206;2022-12-07T08:31:29;5.00;99.90
33811;DHT22;20119;48.334;16.206;2022-12-07T08:33:58;5.10;99.90
33811;DHT22;20119;48.334;16.206;2022-12-07T08:36:25;5.20;99.90
33811;DHT22;20119;48.334;16.206;2022-12-07T08:38:52;5.20;99.90
33811;DHT22;20119;48.334;16.206;2022-12-07T08:41:19;5.20;99.90
33811;DHT22;20119;48.334;16.206;2022-12-07T08:43:45;5.40;99.90
33811;DHT22;20119;48.334;16.206;2022-12-07T08:46:16;5.30;99.90
33811;DHT22;20119;48.334;16.206;2022-12-07T08:48:48;5.30;99.90
33811;DHT22;20119;48.334;16.206;2022-12-07T08:51:18;5.30;99.90
33811;DHT22;20119;48.334;16.206;2022-12-07T08:53:45;5.40;99.90
33811;DHT22;20119;48.334;16.206;2022-12-07T08:58:48;5.50;99.90
33811;DHT22;20119;48.334;16.206;2022-12-07T09:03:50;5.60;99.90
33811;DHT22;20119;48.334;16.206;2022-12-07T09:08:58;6.10;99.90
33811;DHT22;20119;48.334;16.206;2022-12-07T09:11:30;6.10;99.90
33811;DHT22;20119;48.334;16.206;2022-12-07T09:13:57;6.10;99.90
33811;DHT22;20119;48.334;16.206;2022-12-07T09:16:24;6.00;99.90
33811;DHT22;20119;48.334;16.206;2022-12-07T09:21:27;6.50;99.90
33811;DHT22;20119;48.334;16.206;2022-12-07T09:23:54;6.90;99.90
33811;DHT22;20119;48.334;16.206;2022-12-07T09:26:22;7.00;99.90
33811;DHT22;20119;48.334;16.206;2022-12-07T09:34:00;7.00;99.90
33811;DHT22;20119;48.334;16.206;2022-12-07T09:36:28;7.10;99.90
33811;DHT22;20119;48.334;16.206;2022-12-07T09:38:55;7.20;99.90
33811;DHT22;20119;48.334;16.206;2022-12-07T09:41:25;7.10;99.90
33811;DHT22;20119;48.334;16.206;2022-12-07T09:44:02;7.10;99.90
33811;DHT22;20119;48.334;16.206;2022-12-07T09:46:34;7.10;99.90
33811;DHT22;20119;48.334;16.206;2022-12-07T09:49:05;7.10;99.90
33811;DHT22;20119;48.334;16.206;2022-12-07T09:59:19;6.70;99.90
33811;DHT22;20119;48.334;16.206;2022-12-07T10:01:48;6.60;99.90
33811;DHT22;20119;48.334;16.206;2022-12-07T10:04:20;6.50;99.90
33811;DHT22;20119;48.334;16.206;2022-12-07T10:06:48;6.50;99.90
33811;DHT22;20119;48.334;16.206;2022-12-07T10:11:59;6.60;99.90
33811;DHT22;20119;48.334;16.206;2022-12-07T10:14:28;6.60;99.90
33811;DHT22;20119;48.334;16.206;2022-12-07T10:16:56;6.50;99.90
33811;DHT22;20119;48.334;16.206;2022-12-07T10:19:25;6.50;99.90
33811;DHT22;20119;48.334;16.206;2022-12-07T10:22:09;6.30;99.90
33811;DHT22;20119;48.334;16.206;2022-12-07T10:24:37;6.40;99.90
33811;DHT22;20119;48.334;16.206;2022-12-07T10:29:47;6.60;99.90
33811;DHT22;20119;48.334;16.206;2022-12-07T10:32:29;6.80;99.90
33811;DHT22;20119;48.334;16.206;2022-12-07T10:35:19;6.70;99.90
33811;DHT22;20119;48.334;16.206;2022-12-07T10:43:05;7.20;99.90
33811;DHT22;20119;48.334;16.206;2022-12-07T10:48:10;7.30;99.90
33811;DHT22;20119;48.334;16.206;2022-12-07T10:50:55;7.30;99.90
33811;DHT22;20119;48.334;16.206;2022-12-07T10:53:34;7.40;99.90
33811;DHT22;20119;48.334;16.206;2022-12-07T10:56:18;7.40;99.90
33811;DHT22;20119;48.334;16.206;2022-12-07T10:58:53;7.30;99.90
33811;DHT22;20119;48.334;16.206;2022-12-07T11:04:21;7.10;99.90
33811;DHT22;20119;48.334;16.206;2022-12-07T11:06:57;7.10;99.90
33811;DHT22;20119;48.334;16.206;2022-12-07T11:09:39;7.10;99.90
33811;DHT22;20119;48.334;16.206;2022-12-07T11:12:13;7.20;99.90
33811;DHT22;20119;48.334;16.206;2022-12-07T11:14:52;7.10;99.90
33811;DHT22;20119;48.334;16.206;2022-12-07T11:17:32;7.10;99.90
33811;DHT22;20119;48.334;16.206;2022-12-07T11:20:27;7.10;99.90
33811;DHT22;20119;48.334;16.206;2022-12-07T11:23:02;6.80;99.90
33811;DHT22;20119;48.334;16.206;2022-12-07T11:25:34;6.60;99.90
33811;DHT22;20119;48.334;16.206;2022-12-07T11:28:15;6.40;99.90
33811;DHT22;20119;48.334;16.206;2022-12-07T11:30:50;6.30;99.90
33811;DHT22;20119;48.334;16.206;2022-12-07T11:36:02;6.30;99.90
33811;DHT22;20119;48.334;16.206;2022-12-07T11:38:49;6.50;99.90
33811;DHT22;20119;48.334;16.206;2022-12-07T11:41:22;6.50;99.90
33811;DHT22;20119;48.334;16.206;2022-12-07T11:49:07;6.70;99.90
33811;DHT22;20119;48.334;16.206;2022-12-07T11:54:17;6.50;99.90
33811;DHT22;20119;48.334;16.206;2022-12-07T11:56:48;6.50;99.90
33811;DHT22;20119;48.334;16.206;2022-12-07T11:59:22;6.60;99.90
33811;DHT22;20119;48.334;16.206;2022-12-07T12:01:55;6.60;99.90
33811;DHT22;20119;48.334;16.206;2022-12-07T12:04:34;6.70;99.90
33811;DHT22;20119;48.334;16.206;2022-12-07T12:07:07;6.60;99.90
33811;DHT22;20119;48.334;16.206;2022-12-07T12:14:57;6.80;99.90
33811;DHT22;20119;48.334;16.206;2022-12-07T12:17:39;6.70;99.90
33811;DHT22;20119;48.334;16.206;2022-12-07T12:20:21;6.70;99.90
33811;DHT22;20119;48.334;16.206;2022-12-07T12:25:22;6.70;99.90
33811;DHT22;20119;48.334;16.206;2022-12-07T12:30:35;6.80;99.90
33811;DHT22;20119;48.334;16.206;2022-12-07T12:35:38;6.80;99.90
33811;DHT22;20119;48.334;16.206;2022-12-07T12:40:52;6.80;99.90
33811;DHT22;20119;48.334;16.206;2022-12-07T12:46:49;6.60;99.90
33811;DHT22;20119;48.334;16.206;2022-12-07T12:55:14;6.40;99.90
33811;DHT22;20119;48.334;16.206;2022-12-07T12:57:44;6.30;99.90
33811;DHT22;20119;48.334;16.206;2022-12-07T13:00:17;6.30;99.90
33811;DHT22;20119;48.334;16.206;2022-12-07T13:02:50;6.30;99.90
33811;DHT22;20119;48.334;16.206;2022-12-07T13:05:20;6.20;99.90
33811;DHT22;20119;48.334;16.206;2022-12-07T13:08:01;6.20;99.90
33811;DHT22;20119;48.334;16.206;2022-12-07T13:10:40;6.10;99.90
33811;DHT22;20119;48.334;16.206;2022-12-07T13:13:33;6.10;99.90
33811;DHT22;20119;48.334;16.206;2022-12-07T13:18:42;6.00;99.90
33811;DHT22;20119;48.334;16.206;2022-12-07T13:21:43;6.00;99.90
33811;DHT22;20119;48.334;16.206;2022-12-07T13:26:46;6.00;99.90
33811;DHT22;20119;48.334;16.206;2022-12-07T13:29:15;5.90;99.90
33811;DHT22;20119;48.334;16.206;2022-12-07T13:34:33;5.90;99.90
33811;DHT22;20119;48.334;16.206;2022-12-07T13:37:02;5.90;99.90
33811;DHT22;20119;48.334;16.206;2022-12-07T13:39:33;5.90;99.90
33811;DHT22;20119;48.334;16.206;2022-12-07T13:42:23;5.80;99.90
33811;DHT22;20119;48.334;16.206;2022-12-07T13:44:51;5.80;99.90
33811;DHT22;20119;48.334;16.206;2022-12-07T13:47:22;5.80;99.90
33811;DHT22;20119;48.334;16.206;2022-12-07T13:49:55;5.70;99.90
33811;DHT22;20119;48.334;16.206;2022-12-07T13:52:25;5.70;99.90
33811;DHT22;20119;48.334;16.206;2022-12-07T13:54:57;5.60;99.90
33811;DHT22;20119;48.334;16.206;2022-12-07T13:57:25;5.60;99.90
33811;DHT22;20119;48.334;16.206;2022-12-07T14:05:09;5.60;99.90
33811;DHT22;20119;48.334;16.206;2022-12-07T14:07:48;5.50;99.90
33811;DHT22;20119;48.334;16.206;2022-12-07T14:10:26;5.40;99.90
33811;DHT22;20119;48.334;16.206;2022-12-07T14:12:53;5.40;99.90
33811;DHT22;20119;48.334;16.206;2022-12-07T14:17:56;5.30;99.90
33811;DHT22;20119;48.334;16.206;2022-12-07T14:20:33;5.20;99.90
33811;DHT22;20119;48.334;16.206;2022-12-07T14:23:00;5.20;99.90
33811;DHT22;20119;48.334;16.206;2022-12-07T14:25:44;5.10;99.90
33811;DHT22;20119;48.334;16.206;2022-12-07T14:28:25;5.10;99.90
33811;DHT22;20119;48.334;16.206;2022-12-07T14:30:52;5.00;99.90
33811;DHT22;20119;48.334;16.206;2022-12-07T14:33:20;5.00;99.90
33811;DHT22;20119;48.334;16.206;2022-12-07T14:38:25;4.90;99.90
33811;DHT22;20119;48.334;16.206;2022-12-07T14:40:53;4.90;99.90
33811;DHT22;20119;48.334;16.206;2022-12-07T14:43:20;5.00;99.90
33811;DHT22;20119;48.334;16.206;2022-12-07T14:50:58;5.10;99.90
33811;DHT22;20119;48.334;16.206;2022-12-07T14:53:31;5.00;99.90
33811;DHT22;20119;48.334;16.206;2022-12-07T14:56:00;5.10;99.90
33811;DHT22;20119;48.334;16.206;2022-12-07T14:58:27;5.00;99.90
33811;DHT22;20119;48.334;16.206;2022-12-07T15:00:54;5.00;99.90
33811;DHT22;20119;48.334;16.206;2022-12-07T15:05:56;5.00;99.90
33811;DHT22;20119;48.334;16.206;2022-12-07T15:08:23;4.90;99.90
33811;DHT22;20119;48.334;16.206;2022-12-07T15:10:52;4.90;99.90
33811;DHT22;20119;48.334;16.206;2022-12-07T15:13:19;5.00;99.90
33811;DHT22;20119;48.334;16.206;2022-12-07T15:16:04;5.00;99.90
33811;DHT22;20119;48.334;16.206;2022-12-07T15:18:40;5.00;99.90
33811;DHT22;20119;48.334;16.206;2022-12-07T15:23:43;5.00;99.90
33811;DHT22;20119;48.334;16.206;2022-12-07T15:26:11;5.00;99.90
33811;DHT22;20119;48.334;16.206;2022-12-07T15:31:15;5.00;99.90
33811;DHT22;20119;48.334;16.206;2022-12-07T15:33:43;5.00;99.90
33811;DHT22;20119;48.334;16.206;2022-12-07T15:38:45;4.90;99.90
33811;DHT22;20119;48.334;16.206;2022-12-07T15:41:14;4.90;99.90
33811;DHT22;20119;48.334;16.206;2022-12-07T15:43:42;4.90;99.90
33811;DHT22;20119;48.334;16.206;2022-12-07T15:49:02;4.90;99.90
33811;DHT22;20119;48.334;16.206;2022-12-07T15:54:05;4.90;99.90
33811;DHT22;20119;48.334;16.206;2022-12-07T15:56:36;4.90;99.90
33811;DHT22;20119;48.334;16.206;2022-12-07T15:59:03;4.80;99.90
33811;DHT22;20119;48.334;16.206;2022-12-07T16:01:30;4.80;99.90
33811;DHT22;20119;48.334;16.206;2022-12-07T16:03:57;4.80;99.90
33811;DHT22;20119;48.334;16.206;2022-12-07T16:06:25;4.80;99.90
33811;DHT22;20119;48.334;16.206;2022-12-07T16:08:52;4.70;99.90
33811;DHT22;20119;48.334;16.206;2022-12-07T16:13:56;4.70;99.90
33811;DHT22;20119;48.334;16.206;2022-12-07T16:16:23;4.70;99.90
33811;DHT22;20119;48.334;16.206;2022-12-07T16:21:45;4.70;99.90
33811;DHT22;20119;48.334;16.206;2022-12-07T16:29:24;4.50;99.90
33811;DHT22;20119;48.334;16.206;2022-12-07T16:31:51;4.50;99.90
